CYKY

Kindersley Airport

Kindersley, Saskatchewan, Canada
METAR CYKY 172200Z 26009G16KT 10SM OVC260 30/12 A2994 RMK CI8 SLP133 DENSITY ALT 4600FT
Observed Flight Rules
Aug-17 @ 22:00 UTC (36 minutes ago) Visual Flight Rules
Wind Visibility Clouds
260° at 9 knots
 Gusting to 16 knots
10 miles
  • Overcast at 26,000' AGL
Temperatures Readings
Current 30°C / 86°F
Dewpoint 12°C / 54°F
Humidity 33%
Altimeter 29.94" Hg
Pressure 1013.3 hPa
Elevation 694
METAR CYKY 172200Z 26009G16KT 10SM OVC260 30/12 A2994 RMK CI8 SLP133 DENSITY ALT 4600FT
Observed Flight Rules
Aug-17 @ 22:00 UTC
(36 minutes ago)
VFR
Wind Visibility
260° at 9 knots
 Gusting to 16 knots
10 miles
Clouds
  • Overcast at 26,000' AGL
Temperature Dewpoint
30°C / 86°F 12°C / 54°F
Humidity Altimeter Pressure
33% 29.94" Hg 1013.3 hPa